Thatcher, Arizona
Current Conditions -  °F | °C
As of 6:51 PM on Friday 19 Dec 2014 (Local Time) from KSAD Reporting Station
Clear Clear  
Wind Chill: 39°   Ceiling: Unl
Heat Index: 43°   Visibility: 10mi
Dew Point: 38°   Wind: 7mph
Humidity: 82%   Direction: 40°NE
Pressure: 30.16"   Gusts: NA
Location:  32.85°N, 109.76°W
Report Text: KSAD 200151Z AUTO 04006KT 10SM CLR 06/03 A3016 RMK AO2 SLP213 T00610033
Loading
Personal Weather Stations






























Interactive Weather Map New forecast layout! Learn more

10-Day Weather Forecast

Advertisements
Track Severe Weather on mobile